Central City, Arkansas
Current Conditions -  °F | °C
As of 3:53 PM on Monday 20 Oct 2014 (Local Time) from KHOT Reporting Station
Broken Clouds Broken Clouds  
Wind Chill: 68°   Ceiling: 7500
Heat Index: 68°   Visibility: 10mi
Dew Point: 56°   Wind: 0mph
Humidity: 65%   Direction: NA
Pressure: 30.05"   Gusts: NA
Location:  34.5331°N, 93.0035°W
Report Text: KHOT 202053Z AUTO 00000KT 10SM BKN075 BKN095 20/13 A3005 RMK AO2 SLP172 60000 T02000133 56014
Loading
Personal Weather Stations






























Interactive Weather Map
Tropical Storm Tracking
New forecast layout! Learn more

10-Day Weather Forecast

Advertisements
Track Severe Weather on mobile